createdAt,value
2023-04-18T00:01:38.334Z,92.10
2023-04-18T00:04:05.609Z,91.60
2023-04-18T00:06:32.673Z,91.66
2023-04-18T00:08:59.146Z,91.97
2023-04-18T00:11:25.632Z,91.27
2023-04-18T00:13:52.099Z,91.97
2023-04-18T00:16:19.069Z,91.55
2023-04-18T00:18:45.583Z,91.31
2023-04-18T00:21:13.381Z,92.01
2023-04-18T00:23:39.901Z,91.79
2023-04-18T00:26:06.356Z,91.98
2023-04-18T00:28:32.874Z,91.47
2023-04-18T00:30:59.657Z,92.23
2023-04-18T00:33:26.260Z,92.21
2023-04-18T00:35:53.738Z,91.83
2023-04-18T00:38:20.121Z,91.62
2023-04-18T00:40:46.608Z,91.96
2023-04-18T00:43:13.993Z,92.24
2023-04-18T00:45:40.722Z,92.18
2023-04-18T00:48:07.543Z,91.88
2023-04-18T00:50:34.074Z,92.08
2023-04-18T00:53:00.802Z,92.53
2023-04-18T00:55:27.305Z,92.39
2023-04-18T00:57:53.740Z,92.12
2023-04-18T01:00:20.188Z,92.05
2023-04-18T01:02:47.844Z,92.19
2023-04-18T01:05:14.696Z,92.29
2023-04-18T01:07:41.555Z,91.74
2023-04-18T01:10:10.300Z,91.94
2023-04-18T01:12:37.707Z,92.61
2023-04-18T01:15:08.076Z,91.27
2023-04-18T01:17:35.546Z,91.63
2023-04-18T01:20:04.895Z,91.33
2023-04-18T01:22:32.347Z,91.72
2023-04-18T01:24:58.997Z,91.84
2023-04-18T01:27:25.538Z,92.51
2023-04-18T01:29:52.080Z,92.06
2023-04-18T01:32:20.453Z,92.44
2023-04-18T01:34:47.239Z,92.10
2023-04-18T01:37:13.746Z,92.44
2023-04-18T01:39:40.190Z,92.21
2023-04-18T01:42:06.736Z,92.66
2023-04-18T01:44:33.122Z,92.76
2023-04-18T01:46:59.629Z,92.46
2023-04-18T01:49:26.227Z,92.54
2023-04-18T01:51:52.725Z,92.44
2023-04-18T01:54:19.253Z,92.32
2023-04-18T01:56:45.774Z,92.50
2023-04-18T01:59:12.160Z,92.79
2023-04-18T02:01:38.586Z,92.34
2023-04-18T02:04:05.272Z,92.54
2023-04-18T02:06:31.832Z,92.94
2023-04-18T02:08:58.389Z,92.80
2023-04-18T02:11:25.041Z,92.94
2023-04-18T02:13:52.306Z,92.31
2023-04-18T02:16:18.865Z,92.87
2023-04-18T02:18:45.336Z,93.34
2023-04-18T02:21:11.855Z,93.60
2023-04-18T02:23:38.359Z,93.30
2023-04-18T02:26:04.836Z,93.44
2023-04-18T02:28:31.312Z,93.42
2023-04-18T02:30:59.798Z,93.15
2023-04-18T02:33:26.288Z,93.39
2023-04-18T02:35:52.668Z,93.63
2023-04-18T02:38:19.145Z,93.30
2023-04-18T02:40:45.660Z,94.04
2023-04-18T02:43:12.108Z,93.95
2023-04-18T02:45:38.588Z,94.06
2023-04-18T02:48:05.345Z,94.13
2023-04-18T02:50:32.124Z,93.62
2023-04-18T02:52:58.620Z,94.38
2023-04-18T02:55:26.868Z,94.28
2023-04-18T02:57:53.343Z,94.01
2023-04-18T03:00:19.867Z,94.19
2023-04-18T03:02:46.446Z,94.32
2023-04-18T03:05:13.231Z,94.83
2023-04-18T03:07:39.689Z,94.46
2023-04-18T03:10:06.594Z,93.84
2023-04-18T03:12:33.053Z,94.92
2023-04-18T03:14:59.435Z,94.78
2023-04-18T03:17:25.952Z,94.90
2023-04-18T03:19:52.576Z,95.13
2023-04-18T03:22:19.475Z,95.16
2023-04-18T03:24:45.970Z,95.06
2023-04-18T03:27:12.864Z,95.43
2023-04-18T03:29:39.293Z,95.70
2023-04-18T03:32:05.739Z,95.22
2023-04-18T03:34:32.143Z,95.66
2023-04-18T03:36:58.643Z,96.29
2023-04-18T03:39:25.168Z,96.23
2023-04-18T03:41:52.566Z,95.96
2023-04-18T03:44:19.054Z,96.20
2023-04-18T03:46:45.768Z,96.19
2023-04-18T03:49:12.246Z,96.92
2023-04-18T03:51:49.807Z,96.25
2023-04-18T03:54:17.052Z,96.47
2023-04-18T03:56:44.199Z,96.19
2023-04-18T03:59:11.433Z,96.19
2023-04-18T04:01:38.052Z,96.16
2023-04-18T04:04:05.992Z,96.13
2023-04-18T04:06:32.874Z,96.66
2023-04-18T04:08:59.313Z,97.07
2023-04-18T04:11:26.023Z,96.62
2023-04-18T04:13:52.870Z,96.49
2023-04-18T04:16:19.454Z,96.79
2023-04-18T04:18:45.935Z,96.77
2023-04-18T04:21:12.477Z,96.60
2023-04-18T04:23:38.993Z,96.71
2023-04-18T04:26:05.490Z,96.88
2023-04-18T04:28:31.909Z,97.55
2023-04-18T04:30:59.222Z,97.18
2023-04-18T04:33:28.554Z,97.04
2023-04-18T04:35:55.605Z,96.75
2023-04-18T04:38:24.975Z,96.97
2023-04-18T04:40:52.788Z,97.18
2023-04-18T04:43:20.474Z,97.00
2023-04-18T04:45:51.488Z,97.24
2023-04-18T04:48:19.801Z,97.13
2023-04-18T04:50:58.274Z,97.41
2023-04-18T04:53:26.557Z,97.36
2023-04-18T04:55:52.984Z,97.43
2023-04-18T04:58:19.954Z,97.44
2023-04-18T05:00:46.466Z,97.29
2023-04-18T05:03:13.034Z,97.40
2023-04-18T05:05:39.677Z,97.44
2023-04-18T05:08:06.209Z,97.15
2023-04-18T05:10:33.063Z,97.30
2023-04-18T05:12:59.493Z,97.55
2023-04-18T05:15:26.104Z,97.04
2023-04-18T05:17:52.539Z,97.44
2023-04-18T05:20:19.024Z,97.25
2023-04-18T05:22:45.529Z,96.96
2023-04-18T05:25:12.466Z,96.83
2023-04-18T05:27:39.642Z,96.53
2023-04-18T05:30:06.917Z,96.48
2023-04-18T05:32:33.465Z,96.54
2023-04-18T05:35:00.149Z,96.16
2023-04-18T05:37:26.558Z,95.77
2023-04-18T05:39:52.958Z,95.43
2023-04-18T05:42:19.434Z,95.73
2023-04-18T05:44:45.794Z,95.79
2023-04-18T05:47:12.307Z,95.95
2023-04-18T05:49:38.823Z,95.74
2023-04-18T05:52:05.668Z,95.95
2023-04-18T05:54:32.141Z,95.84
2023-04-18T05:57:00.900Z,95.79
2023-04-18T05:59:28.672Z,94.95
2023-04-18T06:01:55.217Z,95.31
2023-04-18T06:04:22.054Z,95.00
2023-04-18T06:06:48.730Z,95.09
2023-04-18T06:09:15.170Z,95.49
2023-04-18T06:11:41.682Z,94.65
2023-04-18T06:14:08.120Z,94.51
2023-04-18T06:16:37.125Z,93.11
2023-04-18T06:19:05.247Z,93.55
2023-04-18T06:21:32.014Z,92.84
2023-04-18T06:23:58.522Z,92.40
2023-04-18T06:26:25.064Z,92.93
2023-04-18T06:28:51.498Z,93.09
2023-04-18T06:31:18.148Z,93.54
2023-04-18T06:33:44.577Z,93.55
2023-04-18T06:36:11.132Z,93.93
2023-04-18T06:38:37.569Z,93.79
2023-04-18T06:41:04.202Z,93.27
2023-04-18T06:43:31.050Z,93.06
2023-04-18T06:45:57.659Z,93.40
2023-04-18T06:48:24.247Z,93.01
2023-04-18T06:50:50.803Z,92.86
2023-04-18T06:53:17.348Z,92.67
2023-04-18T06:55:43.918Z,93.08
2023-04-18T06:58:10.328Z,92.80
2023-04-18T07:00:36.754Z,92.30
2023-04-18T07:03:11.317Z,92.72
2023-04-18T07:05:41.700Z,93.80
2023-04-18T07:08:08.443Z,93.37
2023-04-18T07:10:34.893Z,92.81
2023-04-18T07:13:01.346Z,93.34
2023-04-18T07:15:27.886Z,92.98
2023-04-18T07:17:54.509Z,92.96
2023-04-18T07:20:21.169Z,93.09
2023-04-18T07:22:48.755Z,92.44
2023-04-18T07:25:16.312Z,92.94
2023-04-18T07:27:42.720Z,92.76
2023-04-18T07:30:09.675Z,92.90
2023-04-18T07:32:36.296Z,92.42
2023-04-18T07:35:03.377Z,92.76
2023-04-18T07:37:29.879Z,92.92
2023-04-18T07:39:56.424Z,93.21
2023-04-18T07:42:22.924Z,93.16
2023-04-18T07:44:49.714Z,93.30
2023-04-18T07:47:16.428Z,93.21
2023-04-18T07:49:42.816Z,93.01
2023-04-18T07:52:09.292Z,92.74
2023-04-18T07:54:35.800Z,93.81
2023-04-18T07:57:02.325Z,92.91
2023-04-18T07:59:29.748Z,92.94
2023-04-18T08:01:56.319Z,92.67
2023-04-18T08:04:23.177Z,92.30
2023-04-18T08:06:49.734Z,92.62
2023-04-18T08:09:16.326Z,92.81
2023-04-18T08:11:43.153Z,92.23
2023-04-18T08:14:09.617Z,91.73
2023-04-18T08:16:36.986Z,91.85
2023-04-18T08:19:04.940Z,90.94
2023-04-18T08:21:32.151Z,91.46
2023-04-18T08:23:59.079Z,90.84
2023-04-18T08:26:25.851Z,91.27
2023-04-18T08:28:52.480Z,90.96
2023-04-18T08:31:19.077Z,90.97
2023-04-18T08:33:45.631Z,90.79
2023-04-18T08:36:12.159Z,90.50
2023-04-18T08:38:38.887Z,91.09
2023-04-18T08:41:05.562Z,91.21
2023-04-18T08:43:32.306Z,90.55
2023-04-18T08:46:00.199Z,91.39
2023-04-18T08:48:30.535Z,91.06
2023-04-18T08:51:01.544Z,90.30
2023-04-18T08:53:28.101Z,90.14
2023-04-18T08:55:56.315Z,90.12
2023-04-18T08:58:23.278Z,90.85
2023-04-18T09:00:51.555Z,90.71
2023-04-18T09:03:35.152Z,90.62
2023-04-18T09:06:18.824Z,89.46
2023-04-18T09:08:58.755Z,90.40
2023-04-18T09:11:28.581Z,90.22
2023-04-18T09:13:59.388Z,90.47
2023-04-18T09:16:27.525Z,90.15
2023-04-18T09:19:12.861Z,89.48
2023-04-18T09:21:41.950Z,89.21
2023-04-18T09:24:22.678Z,89.63
2023-04-18T09:26:51.259Z,90.04
2023-04-18T09:29:18.623Z,89.27
2023-04-18T09:31:57.432Z,89.36
2023-04-18T09:34:27.604Z,89.71
2023-04-18T09:37:11.330Z,89.36
2023-04-18T09:39:42.743Z,88.62
2023-04-18T09:42:10.889Z,88.18
2023-04-18T09:44:38.574Z,88.65
2023-04-18T09:47:07.788Z,88.66
2023-04-18T09:49:34.607Z,88.13
2023-04-18T09:52:06.439Z,88.65
2023-04-18T09:54:37.479Z,88.50
2023-04-18T09:57:09.107Z,88.27
2023-04-18T09:59:47.667Z,88.30
2023-04-18T10:02:22.567Z,88.23
2023-04-18T10:04:53.732Z,87.41
2023-04-18T10:07:20.828Z,87.98
2023-04-18T10:09:48.983Z,87.37
2023-04-18T10:12:17.363Z,87.39
2023-04-18T10:14:44.364Z,88.05
2023-04-18T10:17:11.721Z,87.80
2023-04-18T10:19:41.961Z,87.76
2023-04-18T10:22:08.454Z,87.44
2023-04-18T10:24:53.311Z,87.08
2023-04-18T10:27:48.984Z,87.41
2023-04-18T10:30:16.767Z,87.23
2023-04-18T10:32:43.560Z,87.18
2023-04-18T10:35:11.188Z,87.90
2023-04-18T10:37:51.128Z,86.81
2023-04-18T10:40:32.435Z,86.26
2023-04-18T10:42:59.167Z,85.98
2023-04-18T10:45:28.848Z,86.72
2023-04-18T10:48:30.134Z,86.67
2023-04-18T10:51:19.319Z,85.02
2023-04-18T10:53:52.432Z,85.44
2023-04-18T10:56:19.316Z,85.81
2023-04-18T10:58:59.237Z,85.35
2023-04-18T11:01:31.651Z,84.79
2023-04-18T11:03:59.573Z,84.39
2023-04-18T11:06:30.270Z,84.00
2023-04-18T11:09:13.728Z,84.43
2023-04-18T11:11:41.940Z,83.67
2023-04-18T11:14:08.502Z,84.35
2023-04-18T11:16:35.181Z,83.43
2023-04-18T11:19:18.977Z,81.19
2023-04-18T11:21:45.509Z,80.03
2023-04-18T11:24:12.287Z,79.39
2023-04-18T11:26:39.216Z,77.83
2023-04-18T11:29:06.358Z,79.45
2023-04-18T11:31:32.793Z,76.85
2023-04-18T11:33:59.237Z,77.20
2023-04-18T11:36:26.500Z,76.93
2023-04-18T11:38:53.053Z,78.55
2023-04-18T11:41:19.555Z,78.51
2023-04-18T11:43:46.622Z,77.15
2023-04-18T11:46:13.593Z,75.09
2023-04-18T11:48:42.226Z,75.60
2023-04-18T11:51:31.922Z,75.14
2023-04-18T11:53:58.363Z,75.02
2023-04-18T11:56:25.041Z,75.52
2023-04-18T11:58:51.596Z,74.77
2023-04-18T12:01:25.724Z,74.63
2023-04-18T12:04:07.497Z,75.03
2023-04-18T12:06:50.282Z,75.52
2023-04-18T12:09:17.434Z,74.91
2023-04-18T12:11:44.327Z,74.89
2023-04-18T12:14:21.567Z,71.96
2023-04-18T12:16:52.015Z,73.29
2023-04-18T12:19:20.779Z,75.21
2023-04-18T12:22:02.046Z,74.93
2023-04-18T12:24:28.915Z,72.67
2023-04-18T12:26:57.838Z,74.58
2023-04-18T12:29:25.559Z,74.57
2023-04-18T12:31:52.149Z,72.41
2023-04-18T12:34:18.860Z,73.17
2023-04-18T12:36:45.908Z,73.57
2023-04-18T12:39:12.650Z,72.77
2023-04-18T12:41:39.099Z,72.42
2023-04-18T12:44:06.713Z,69.75
2023-04-18T12:46:33.355Z,69.89
2023-04-18T12:49:00.273Z,69.14
2023-04-18T12:51:27.952Z,69.71
2023-04-18T12:53:54.430Z,68.96
2023-04-18T12:56:21.419Z,68.50
2023-04-18T12:58:47.938Z,67.06
2023-04-18T13:01:14.531Z,68.66
2023-04-18T13:03:41.521Z,69.28
2023-04-18T13:06:09.363Z,67.33
2023-04-18T13:08:37.504Z,68.81
2023-04-18T13:11:04.147Z,67.41
2023-04-18T13:13:30.667Z,67.69
2023-04-18T13:15:57.217Z,66.44
2023-04-18T13:18:23.714Z,66.63
2023-04-18T13:20:50.296Z,67.39
2023-04-18T13:23:16.770Z,67.16
2023-04-18T13:25:43.305Z,66.70
2023-04-18T13:28:09.684Z,66.50
2023-04-18T13:30:36.102Z,67.02
2023-04-18T13:33:02.569Z,68.29
2023-04-18T13:35:29.180Z,67.69
2023-04-18T13:37:55.931Z,67.95
2023-04-18T13:40:22.523Z,66.99
2023-04-18T13:42:49.124Z,67.11
2023-04-18T13:45:15.838Z,66.96
2023-04-18T13:47:42.395Z,66.51
2023-04-18T13:50:09.447Z,67.48
2023-04-18T13:52:36.286Z,68.68
2023-04-18T13:55:02.828Z,68.28
2023-04-18T13:57:31.946Z,69.09
2023-04-18T13:59:58.422Z,68.06
2023-04-18T14:02:24.946Z,69.53
2023-04-18T14:04:52.360Z,69.14
2023-04-18T14:07:18.986Z,69.65
2023-04-18T14:09:48.164Z,70.24
2023-04-18T14:12:14.671Z,69.62
2023-04-18T14:14:41.762Z,69.42
2023-04-18T14:17:08.254Z,69.48
2023-04-18T14:19:35.005Z,69.77
2023-04-18T14:22:01.422Z,70.28
2023-04-18T14:24:27.926Z,71.48
2023-04-18T14:26:54.741Z,71.29
2023-04-18T14:29:21.159Z,72.53
2023-04-18T14:31:50.594Z,71.97
2023-04-18T14:34:17.110Z,72.66
2023-04-18T14:36:43.568Z,73.35
2023-04-18T14:39:10.260Z,72.68
2023-04-18T14:41:36.789Z,71.93
2023-04-18T14:44:04.158Z,72.43
2023-04-18T14:46:30.700Z,71.75
2023-04-18T14:48:58.251Z,72.22
2023-04-18T14:51:24.789Z,72.92
2023-04-18T14:53:51.399Z,72.55
2023-04-18T14:56:20.895Z,73.79
2023-04-18T14:58:47.550Z,74.08
2023-04-18T15:01:14.035Z,74.36
2023-04-18T15:03:40.900Z,73.61
2023-04-18T15:06:07.750Z,74.50
2023-04-18T15:08:34.348Z,74.68
2023-04-18T15:11:01.362Z,73.91
2023-04-18T15:13:27.910Z,74.83
2023-04-18T15:15:56.436Z,73.95
2023-04-18T15:18:23.067Z,74.69
2023-04-18T15:20:49.990Z,74.97
2023-04-18T15:23:16.581Z,74.15
2023-04-18T15:25:44.712Z,74.54
2023-04-18T15:28:13.125Z,74.46
2023-04-18T15:30:39.709Z,75.30
2023-04-18T15:33:07.526Z,75.12
2023-04-18T15:35:33.999Z,74.74
2023-04-18T15:38:00.539Z,75.67
2023-04-18T15:40:27.064Z,76.80
2023-04-18T15:42:54.328Z,76.89
2023-04-18T15:45:21.192Z,77.33
2023-04-18T15:47:47.837Z,77.34
2023-04-18T15:50:15.939Z,77.28
2023-04-18T15:52:42.453Z,77.15
2023-04-18T15:55:11.041Z,76.56
2023-04-18T15:57:37.792Z,76.86
2023-04-18T16:00:10.175Z,77.24
2023-04-18T16:02:37.021Z,78.66
2023-04-18T16:05:04.521Z,77.11
2023-04-18T16:07:31.191Z,77.61
2023-04-18T16:09:57.850Z,78.07
2023-04-18T16:12:24.621Z,77.60
2023-04-18T16:14:51.327Z,77.69
2023-04-18T16:17:17.881Z,77.88
2023-04-18T16:19:44.405Z,77.29
2023-04-18T16:22:12.112Z,78.05
2023-04-18T16:24:39.919Z,77.98
2023-04-18T16:27:08.014Z,78.20
2023-04-18T16:29:35.196Z,77.91
2023-04-18T16:32:02.767Z,77.79
2023-04-18T16:34:29.200Z,78.35
2023-04-18T16:36:55.813Z,79.21
2023-04-18T16:39:22.597Z,78.23
2023-04-18T16:41:49.267Z,79.07
2023-04-18T16:44:16.118Z,79.19
2023-04-18T16:46:42.832Z,79.01
2023-04-18T16:49:09.276Z,79.61
2023-04-18T16:51:37.097Z,79.50
2023-04-18T16:54:04.325Z,79.02
2023-04-18T16:56:30.759Z,79.44
2023-04-18T16:58:58.068Z,79.23
2023-04-18T17:01:24.532Z,79.76
2023-04-18T17:03:51.323Z,79.01
2023-04-18T17:06:19.286Z,79.27
2023-04-18T17:08:49.527Z,79.90
2023-04-18T17:11:19.825Z,80.09
2023-04-18T17:13:47.865Z,80.00
2023-04-18T17:16:14.589Z,79.93
2023-04-18T17:18:41.772Z,79.50
2023-04-18T17:21:12.335Z,79.73
2023-04-18T17:23:41.442Z,80.48
2023-04-18T17:26:09.061Z,80.25
2023-04-18T17:28:36.364Z,80.17
2023-04-18T17:31:03.891Z,80.50
2023-04-18T17:33:31.163Z,80.38
2023-04-18T17:35:58.175Z,80.34
2023-04-18T17:38:24.765Z,80.64
2023-04-18T17:41:01.144Z,80.70
2023-04-18T17:43:28.194Z,80.62
2023-04-18T17:45:55.953Z,80.81
2023-04-18T17:48:22.612Z,81.23
2023-04-18T17:50:49.146Z,81.62
2023-04-18T17:53:15.810Z,81.63
2023-04-18T17:55:42.369Z,81.50
2023-04-18T17:58:09.220Z,81.18
2023-04-18T18:00:35.924Z,81.55
2023-04-18T18:03:03.560Z,81.33
2023-04-18T18:05:30.707Z,81.78
2023-04-18T18:07:57.621Z,82.18
2023-04-18T18:10:24.924Z,82.25
2023-04-18T18:12:51.502Z,82.69
2023-04-18T18:15:18.362Z,81.99
2023-04-18T18:17:45.016Z,82.70
2023-04-18T18:20:11.829Z,82.47
2023-04-18T18:22:38.280Z,82.41
2023-04-18T18:25:05.449Z,83.00
2023-04-18T18:27:31.920Z,82.79
2023-04-18T18:29:58.530Z,83.17
2023-04-18T18:32:26.736Z,83.31
2023-04-18T18:34:53.341Z,83.08
2023-04-18T18:37:19.895Z,83.29
2023-04-18T18:39:46.346Z,83.77
2023-04-18T18:42:12.878Z,83.66
2023-04-18T18:44:39.305Z,83.50
2023-04-18T18:47:06.097Z,83.59
2023-04-18T18:49:32.798Z,83.77
2023-04-18T18:51:59.340Z,84.06
2023-04-18T18:54:25.984Z,83.55
2023-04-18T18:56:52.624Z,84.04
2023-04-18T18:59:19.166Z,84.11
2023-04-18T19:01:45.751Z,84.10
2023-04-18T19:04:12.574Z,84.17
2023-04-18T19:06:39.318Z,83.81
2023-04-18T19:09:06.078Z,84.04
2023-04-18T19:11:32.610Z,83.95
2023-04-18T19:13:59.119Z,84.04
2023-04-18T19:16:25.998Z,84.00
2023-04-18T19:18:52.455Z,83.96
2023-04-18T19:21:20.141Z,84.50
2023-04-18T19:23:47.061Z,84.40
2023-04-18T19:26:13.783Z,84.71
2023-04-18T19:28:40.291Z,84.85
2023-04-18T19:31:06.908Z,85.01
2023-04-18T19:33:33.432Z,84.89
2023-04-18T19:36:05.805Z,84.94
2023-04-18T19:38:36.742Z,85.40
2023-04-18T19:41:03.339Z,85.10
2023-04-18T19:43:29.925Z,85.33
2023-04-18T19:45:56.543Z,85.35
2023-04-18T19:48:23.127Z,85.62
2023-04-18T19:50:50.082Z,85.16
2023-04-18T19:53:18.832Z,85.11
2023-04-18T19:55:45.455Z,85.47
2023-04-18T19:58:11.942Z,85.64
2023-04-18T20:00:39.420Z,86.01
2023-04-18T20:03:06.080Z,85.80
2023-04-18T20:05:32.757Z,85.92
2023-04-18T20:07:59.209Z,85.76
2023-04-18T20:10:25.779Z,85.40
2023-04-18T20:12:52.187Z,86.17
2023-04-18T20:15:18.882Z,85.92
2023-04-18T20:17:45.503Z,85.97
2023-04-18T20:20:12.444Z,85.74
2023-04-18T20:22:40.244Z,85.99
2023-04-18T20:25:07.075Z,86.11
2023-04-18T20:27:33.624Z,86.70
2023-04-18T20:30:00.183Z,86.31
2023-04-18T20:32:26.895Z,86.54
2023-04-18T20:34:53.503Z,86.51
2023-04-18T20:37:20.449Z,85.94
2023-04-18T20:39:47.782Z,86.44
2023-04-18T20:42:14.331Z,86.34
2023-04-18T20:44:43.225Z,86.41
2023-04-18T20:47:09.753Z,86.35
2023-04-18T20:49:36.289Z,86.76
2023-04-18T20:52:02.894Z,86.62
2023-04-18T20:54:29.465Z,86.68
2023-04-18T20:56:56.052Z,86.45
2023-04-18T20:59:22.579Z,86.79
2023-04-18T21:01:49.059Z,86.95
2023-04-18T21:04:15.806Z,86.59
2023-04-18T21:06:42.733Z,87.12
2023-04-18T21:09:09.233Z,87.02
2023-04-18T21:11:35.596Z,85.98
2023-04-18T21:14:03.649Z,87.24
2023-04-18T21:16:30.140Z,87.20
2023-04-18T21:18:56.692Z,87.19
2023-04-18T21:21:23.265Z,87.01
2023-04-18T21:23:49.880Z,86.71
2023-04-18T21:26:16.382Z,87.33
2023-04-18T21:29:00.205Z,86.80
2023-04-18T21:31:29.306Z,87.24
2023-04-18T21:33:57.309Z,86.64
2023-04-18T21:36:26.876Z,87.30
2023-04-18T21:38:57.375Z,87.25
2023-04-18T21:41:24.386Z,87.21
2023-04-18T21:43:51.722Z,86.78
2023-04-18T21:46:18.859Z,87.11
2023-04-18T21:48:47.101Z,87.25
2023-04-18T21:51:15.585Z,87.19
2023-04-18T21:53:42.796Z,87.22
2023-04-18T21:56:09.737Z,87.00
2023-04-18T21:58:36.327Z,87.49
2023-04-18T22:01:03.328Z,86.98
2023-04-18T22:03:30.192Z,87.51
2023-04-18T22:05:57.579Z,87.21
2023-04-18T22:08:25.765Z,87.23
2023-04-18T22:10:58.104Z,87.69
2023-04-18T22:13:30.020Z,87.60
2023-04-18T22:15:58.187Z,87.04
2023-04-18T22:18:25.229Z,87.12
2023-04-18T22:20:53.593Z,87.51
2023-04-18T22:23:20.635Z,87.50
2023-04-18T22:25:47.470Z,87.77
2023-04-18T22:28:13.936Z,87.65
2023-04-18T22:30:40.519Z,87.28
2023-04-18T22:33:07.133Z,87.44
2023-04-18T22:35:33.644Z,87.47
2023-04-18T22:38:00.129Z,87.98
2023-04-18T22:40:26.953Z,87.49
2023-04-18T22:42:54.108Z,87.10
2023-04-18T22:45:20.796Z,87.80
2023-04-18T22:47:47.296Z,87.76
2023-04-18T22:50:14.651Z,87.65
2023-04-18T22:52:41.515Z,87.59
2023-04-18T22:55:11.464Z,87.64
2023-04-18T22:57:39.206Z,87.74
2023-04-18T23:00:06.983Z,86.92
2023-04-18T23:02:33.531Z,87.07
2023-04-18T23:05:02.295Z,87.41
2023-04-18T23:07:28.889Z,87.96
2023-04-18T23:09:55.432Z,87.42
2023-04-18T23:12:22.266Z,87.66
2023-04-18T23:14:48.774Z,87.85
2023-04-18T23:17:15.320Z,87.71
2023-04-18T23:19:41.885Z,88.03
2023-04-18T23:22:08.225Z,87.87
2023-04-18T23:24:34.730Z,87.83
2023-04-18T23:27:01.554Z,87.36
2023-04-18T23:29:28.217Z,87.97
2023-04-18T23:31:54.628Z,87.57
2023-04-18T23:34:21.108Z,87.45
2023-04-18T23:36:47.581Z,87.86
2023-04-18T23:39:13.990Z,87.53
2023-04-18T23:41:40.840Z,88.18
2023-04-18T23:44:07.243Z,88.18
2023-04-18T23:46:36.230Z,88.18
2023-04-18T23:49:03.194Z,88.36
2023-04-18T23:51:29.681Z,88.71
2023-04-18T23:53:56.214Z,88.10
2023-04-18T23:56:23.162Z,88.98
2023-04-18T23:58:50.369Z,89.32
